sensor_id;sensor_type;location;lat;lon;timestamp;temperature;humidity
3298;DHT22;1661;53.572;10.174;2023-02-20T00:01:29;6.30;84.00
3298;DHT22;1661;53.572;10.174;2023-02-20T00:03:57;6.30;84.00
3298;DHT22;1661;53.572;10.174;2023-02-20T00:06:24;6.30;83.80
3298;DHT22;1661;53.572;10.174;2023-02-20T00:08:51;6.30;84.00
3298;DHT22;1661;53.572;10.174;2023-02-20T00:11:18;6.20;84.20
3298;DHT22;1661;53.572;10.174;2023-02-20T00:13:45;6.30;84.30
3298;DHT22;1661;53.572;10.174;2023-02-20T00:16:12;6.30;84.20
3298;DHT22;1661;53.572;10.174;2023-02-20T00:18:39;6.30;84.20
3298;DHT22;1661;53.572;10.174;2023-02-20T00:21:07;6.30;84.20
3298;DHT22;1661;53.572;10.174;2023-02-20T00:23:34;6.30;84.40
3298;DHT22;1661;53.572;10.174;2023-02-20T00:26:01;6.30;84.50
3298;DHT22;1661;53.572;10.174;2023-02-20T00:28:28;6.30;84.40
3298;DHT22;1661;53.572;10.174;2023-02-20T00:30:55;6.20;84.70
3298;DHT22;1661;53.572;10.174;2023-02-20T00:33:22;6.30;84.80
3298;DHT22;1661;53.572;10.174;2023-02-20T00:35:49;6.40;84.50
3298;DHT22;1661;53.572;10.174;2023-02-20T00:38:17;6.40;84.50
3298;DHT22;1661;53.572;10.174;2023-02-20T00:40:44;6.40;84.40
3298;DHT22;1661;53.572;10.174;2023-02-20T00:43:11;6.40;84.50
3298;DHT22;1661;53.572;10.174;2023-02-20T00:45:38;6.50;84.50
3298;DHT22;1661;53.572;10.174;2023-02-20T00:48:05;6.50;84.40
3298;DHT22;1661;53.572;10.174;2023-02-20T00:50:32;6.50;84.40
3298;DHT22;1661;53.572;10.174;2023-02-20T00:52:59;6.50;84.30
3298;DHT22;1661;53.572;10.174;2023-02-20T00:55:27;6.40;84.70
3298;DHT22;1661;53.572;10.174;2023-02-20T00:57:54;6.50;84.70
3298;DHT22;1661;53.572;10.174;2023-02-20T01:00:23;6.40;84.80
3298;DHT22;1661;53.572;10.174;2023-02-20T01:02:50;6.50;84.80
3298;DHT22;1661;53.572;10.174;2023-02-20T01:05:17;6.50;84.80
3298;DHT22;1661;53.572;10.174;2023-02-20T01:07:44;6.50;84.80
3298;DHT22;1661;53.572;10.174;2023-02-20T01:10:11;6.60;84.60
3298;DHT22;1661;53.572;10.174;2023-02-20T01:12:40;6.60;84.60
3298;DHT22;1661;53.572;10.174;2023-02-20T01:15:08;6.60;83.90
3298;DHT22;1661;53.572;10.174;2023-02-20T01:17:36;6.50;84.50
3298;DHT22;1661;53.572;10.174;2023-02-20T01:20:03;6.50;84.60
3298;DHT22;1661;53.572;10.174;2023-02-20T01:22:30;6.60;84.60
3298;DHT22;1661;53.572;10.174;2023-02-20T01:24:57;6.60;84.20
3298;DHT22;1661;53.572;10.174;2023-02-20T01:27:24;6.60;84.20
3298;DHT22;1661;53.572;10.174;2023-02-20T01:29:52;6.70;84.20
3298;DHT22;1661;53.572;10.174;2023-02-20T01:32:19;6.70;84.20
3298;DHT22;1661;53.572;10.174;2023-02-20T01:34:45;6.70;84.20
3298;DHT22;1661;53.572;10.174;2023-02-20T01:37:13;6.70;84.50
3298;DHT22;1661;53.572;10.174;2023-02-20T01:39:40;6.60;84.50
3298;DHT22;1661;53.572;10.174;2023-02-20T01:42:10;6.60;84.60
3298;DHT22;1661;53.572;10.174;2023-02-20T01:44:38;6.70;84.70
3298;DHT22;1661;53.572;10.174;2023-02-20T01:47:10;6.70;84.40
3298;DHT22;1661;53.572;10.174;2023-02-20T01:49:42;6.70;84.60
3298;DHT22;1661;53.572;10.174;2023-02-20T01:52:16;6.70;84.50
3298;DHT22;1661;53.572;10.174;2023-02-20T01:54:44;6.80;84.30
3298;DHT22;1661;53.572;10.174;2023-02-20T01:57:16;6.70;84.50
3298;DHT22;1661;53.572;10.174;2023-02-20T01:59:43;6.60;84.90
3298;DHT22;1661;53.572;10.174;2023-02-20T02:02:12;6.70;84.90
3298;DHT22;1661;53.572;10.174;2023-02-20T02:04:40;6.70;84.80
3298;DHT22;1661;53.572;10.174;2023-02-20T02:07:10;6.80;84.50
3298;DHT22;1661;53.572;10.174;2023-02-20T02:09:40;6.80;84.50
3298;DHT22;1661;53.572;10.174;2023-02-20T02:12:09;6.80;84.50
3298;DHT22;1661;53.572;10.174;2023-02-20T02:14:35;6.80;84.30
3298;DHT22;1661;53.572;10.174;2023-02-20T02:17:24;6.80;84.40
3298;DHT22;1661;53.572;10.174;2023-02-20T02:23:26;6.80;84.30
3298;DHT22;1661;53.572;10.174;2023-02-20T02:26:13;6.80;84.70
3298;DHT22;1661;53.572;10.174;2023-02-20T02:32:21;6.80;84.60
3298;DHT22;1661;53.572;10.174;2023-02-20T02:35:33;6.80;84.70
3298;DHT22;1661;53.572;10.174;2023-02-20T02:38:16;6.90;84.90
3298;DHT22;1661;53.572;10.174;2023-02-20T02:40:51;6.90;84.90
3298;DHT22;1661;53.572;10.174;2023-02-20T02:43:27;6.90;84.90
3298;DHT22;1661;53.572;10.174;2023-02-20T02:45:55;6.90;84.80
3298;DHT22;1661;53.572;10.174;2023-02-20T02:48:27;7.00;84.90
3298;DHT22;1661;53.572;10.174;2023-02-20T02:51:02;6.90;84.70
3298;DHT22;1661;53.572;10.174;2023-02-20T02:53:32;6.90;85.20
3298;DHT22;1661;53.572;10.174;2023-02-20T02:55:59;6.90;85.50
3298;DHT22;1661;53.572;10.174;2023-02-20T02:58:46;7.00;85.50
3298;DHT22;1661;53.572;10.174;2023-02-20T03:01:14;7.00;85.80
3298;DHT22;1661;53.572;10.174;2023-02-20T03:03:44;7.00;86.00
3298;DHT22;1661;53.572;10.174;2023-02-20T03:06:15;7.10;86.20
3298;DHT22;1661;53.572;10.174;2023-02-20T03:08:46;7.20;86.10
3298;DHT22;1661;53.572;10.174;2023-02-20T03:11:23;7.10;86.30
3298;DHT22;1661;53.572;10.174;2023-02-20T03:13:53;7.10;86.60
3298;DHT22;1661;53.572;10.174;2023-02-20T03:16:43;7.10;86.90
3298;DHT22;1661;53.572;10.174;2023-02-20T03:19:12;7.10;87.20
3298;DHT22;1661;53.572;10.174;2023-02-20T03:21:42;7.00;87.40
3298;DHT22;1661;53.572;10.174;2023-02-20T03:24:12;7.00;87.70
3298;DHT22;1661;53.572;10.174;2023-02-20T03:26:41;7.00;87.80
3298;DHT22;1661;53.572;10.174;2023-02-20T03:29:13;7.00;87.90
3298;DHT22;1661;53.572;10.174;2023-02-20T03:31:47;7.00;88.00
3298;DHT22;1661;53.572;10.174;2023-02-20T03:34:19;7.10;88.00
3298;DHT22;1661;53.572;10.174;2023-02-20T03:37:06;7.00;87.80
3298;DHT22;1661;53.572;10.174;2023-02-20T03:39:57;7.20;87.80
3298;DHT22;1661;53.572;10.174;2023-02-20T03:42:46;7.10;87.30
3298;DHT22;1661;53.572;10.174;2023-02-20T03:45:31;7.10;87.70
3298;DHT22;1661;53.572;10.174;2023-02-20T03:48:05;7.10;87.60
3298;DHT22;1661;53.572;10.174;2023-02-20T03:50:33;7.10;87.40
3298;DHT22;1661;53.572;10.174;2023-02-20T03:53:00;7.10;87.10
3298;DHT22;1661;53.572;10.174;2023-02-20T03:55:28;7.20;87.30
3298;DHT22;1661;53.572;10.174;2023-02-20T03:57:57;7.20;87.00
3298;DHT22;1661;53.572;10.174;2023-02-20T04:00:29;7.30;86.70
3298;DHT22;1661;53.572;10.174;2023-02-20T04:02:59;7.30;86.60
3298;DHT22;1661;53.572;10.174;2023-02-20T04:05:39;7.30;86.60
3298;DHT22;1661;53.572;10.174;2023-02-20T04:08:12;7.30;86.40
3298;DHT22;1661;53.572;10.174;2023-02-20T04:10:44;7.30;86.50
3298;DHT22;1661;53.572;10.174;2023-02-20T04:13:14;7.30;86.30
3298;DHT22;1661;53.572;10.174;2023-02-20T04:15:42;7.30;86.10
3298;DHT22;1661;53.572;10.174;2023-02-20T04:18:11;7.20;86.20
3298;DHT22;1661;53.572;10.174;2023-02-20T04:20:38;7.20;86.20
3298;DHT22;1661;53.572;10.174;2023-02-20T04:23:09;7.30;86.30
3298;DHT22;1661;53.572;10.174;2023-02-20T04:25:43;7.30;86.00
3298;DHT22;1661;53.572;10.174;2023-02-20T04:28:11;7.30;86.00
3298;DHT22;1661;53.572;10.174;2023-02-20T04:30:39;7.30;85.90
3298;DHT22;1661;53.572;10.174;2023-02-20T04:33:08;7.30;85.80
3298;DHT22;1661;53.572;10.174;2023-02-20T04:35:35;7.30;85.90
3298;DHT22;1661;53.572;10.174;2023-02-20T04:38:02;7.30;85.80
3298;DHT22;1661;53.572;10.174;2023-02-20T04:40:29;7.30;85.80
3298;DHT22;1661;53.572;10.174;2023-02-20T04:42:57;7.30;85.90
3298;DHT22;1661;53.572;10.174;2023-02-20T04:45:24;7.30;86.00
3298;DHT22;1661;53.572;10.174;2023-02-20T04:47:51;7.30;86.00
3298;DHT22;1661;53.572;10.174;2023-02-20T04:50:19;7.30;86.00
3298;DHT22;1661;53.572;10.174;2023-02-20T04:52:46;7.30;86.00
3298;DHT22;1661;53.572;10.174;2023-02-20T04:55:14;7.30;86.20
3298;DHT22;1661;53.572;10.174;2023-02-20T04:57:40;7.30;86.10
3298;DHT22;1661;53.572;10.174;2023-02-20T05:00:10;7.30;86.00
3298;DHT22;1661;53.572;10.174;2023-02-20T05:02:38;7.40;85.80
3298;DHT22;1661;53.572;10.174;2023-02-20T05:05:06;7.40;85.70
3298;DHT22;1661;53.572;10.174;2023-02-20T05:07:40;7.40;85.60
3298;DHT22;1661;53.572;10.174;2023-02-20T05:10:07;7.40;85.90
3298;DHT22;1661;53.572;10.174;2023-02-20T05:12:34;7.30;86.20
3298;DHT22;1661;53.572;10.174;2023-02-20T05:15:01;7.20;86.70
3298;DHT22;1661;53.572;10.174;2023-02-20T05:17:29;7.20;87.10
3298;DHT22;1661;53.572;10.174;2023-02-20T05:19:55;7.30;87.00
3298;DHT22;1661;53.572;10.174;2023-02-20T05:22:22;7.30;86.70
3298;DHT22;1661;53.572;10.174;2023-02-20T05:24:50;7.30;86.40
3298;DHT22;1661;53.572;10.174;2023-02-20T05:27:19;7.30;86.50
3298;DHT22;1661;53.572;10.174;2023-02-20T05:29:47;7.30;86.60
3298;DHT22;1661;53.572;10.174;2023-02-20T05:32:15;7.30;86.70
3298;DHT22;1661;53.572;10.174;2023-02-20T05:34:44;7.30;86.70
3298;DHT22;1661;53.572;10.174;2023-02-20T05:37:12;7.30;86.80
3298;DHT22;1661;53.572;10.174;2023-02-20T05:39:39;7.20;86.90
3298;DHT22;1661;53.572;10.174;2023-02-20T05:42:07;7.20;87.00
3298;DHT22;1661;53.572;10.174;2023-02-20T05:44:34;7.30;87.00
3298;DHT22;1661;53.572;10.174;2023-02-20T05:47:02;7.30;86.90
3298;DHT22;1661;53.572;10.174;2023-02-20T05:49:29;7.20;87.30
3298;DHT22;1661;53.572;10.174;2023-02-20T05:51:58;7.30;87.40
3298;DHT22;1661;53.572;10.174;2023-02-20T05:54:24;7.30;87.20
3298;DHT22;1661;53.572;10.174;2023-02-20T05:56:52;7.40;87.00
3298;DHT22;1661;53.572;10.174;2023-02-20T05:59:21;7.30;87.10
3298;DHT22;1661;53.572;10.174;2023-02-20T06:01:48;7.30;87.20
3298;DHT22;1661;53.572;10.174;2023-02-20T06:04:17;7.30;87.20
3298;DHT22;1661;53.572;10.174;2023-02-20T06:06:44;7.30;87.40
3298;DHT22;1661;53.572;10.174;2023-02-20T06:09:12;7.30;87.50
3298;DHT22;1661;53.572;10.174;2023-02-20T06:11:46;7.40;87.20
3298;DHT22;1661;53.572;10.174;2023-02-20T06:14:15;7.30;87.40
3298;DHT22;1661;53.572;10.174;2023-02-20T06:16:43;7.30;87.60
3298;DHT22;1661;53.572;10.174;2023-02-20T06:19:10;7.30;87.50
3298;DHT22;1661;53.572;10.174;2023-02-20T06:21:37;7.30;87.70
3298;DHT22;1661;53.572;10.174;2023-02-20T06:24:06;7.40;87.70
3298;DHT22;1661;53.572;10.174;2023-02-20T06:26:38;7.40;87.60
3298;DHT22;1661;53.572;10.174;2023-02-20T06:29:05;7.40;87.70
3298;DHT22;1661;53.572;10.174;2023-02-20T06:31:31;7.40;87.70
3298;DHT22;1661;53.572;10.174;2023-02-20T06:33:59;7.40;87.60
3298;DHT22;1661;53.572;10.174;2023-02-20T06:36:28;7.40;87.40
3298;DHT22;1661;53.572;10.174;2023-02-20T06:38:55;7.40;87.60
3298;DHT22;1661;53.572;10.174;2023-02-20T06:41:22;7.40;87.80
3298;DHT22;1661;53.572;10.174;2023-02-20T06:43:50;7.40;87.80
3298;DHT22;1661;53.572;10.174;2023-02-20T06:46:17;7.50;87.50
3298;DHT22;1661;53.572;10.174;2023-02-20T06:48:44;7.50;87.50
3298;DHT22;1661;53.572;10.174;2023-02-20T06:51:15;7.60;87.40
3298;DHT22;1661;53.572;10.174;2023-02-20T06:53:43;7.60;87.40
3298;DHT22;1661;53.572;10.174;2023-02-20T06:56:13;7.50;87.50
3298;DHT22;1661;53.572;10.174;2023-02-20T06:58:43;7.60;87.60
3298;DHT22;1661;53.572;10.174;2023-02-20T07:01:11;7.60;87.70
3298;DHT22;1661;53.572;10.174;2023-02-20T07:03:37;7.60;87.70
3298;DHT22;1661;53.572;10.174;2023-02-20T07:06:05;7.70;87.60
3298;DHT22;1661;53.572;10.174;2023-02-20T07:08:32;7.70;87.70
3298;DHT22;1661;53.572;10.174;2023-02-20T07:10:58;7.70;87.60
3298;DHT22;1661;53.572;10.174;2023-02-20T07:13:25;7.80;87.30
3298;DHT22;1661;53.572;10.174;2023-02-20T07:15:52;7.70;87.50
3298;DHT22;1661;53.572;10.174;2023-02-20T07:18:20;7.70;87.60
3298;DHT22;1661;53.572;10.174;2023-02-20T07:20:48;7.70;87.90
3298;DHT22;1661;53.572;10.174;2023-02-20T07:23:15;7.70;87.80
3298;DHT22;1661;53.572;10.174;2023-02-20T07:25:42;7.80;87.80
3298;DHT22;1661;53.572;10.174;2023-02-20T07:28:09;7.80;88.00
3298;DHT22;1661;53.572;10.174;2023-02-20T07:30:36;7.80;88.20
3298;DHT22;1661;53.572;10.174;2023-02-20T07:33:03;7.80;88.40
3298;DHT22;1661;53.572;10.174;2023-02-20T07:35:31;7.70;89.00
3298;DHT22;1661;53.572;10.174;2023-02-20T07:37:58;7.80;89.00
3298;DHT22;1661;53.572;10.174;2023-02-20T07:40:25;7.80;88.90
3298;DHT22;1661;53.572;10.174;2023-02-20T07:42:54;7.80;88.90
3298;DHT22;1661;53.572;10.174;2023-02-20T07:45:21;7.90;89.00
3298;DHT22;1661;53.572;10.174;2023-02-20T07:47:48;7.90;89.00
3298;DHT22;1661;53.572;10.174;2023-02-20T07:50:15;7.80;89.30
3298;DHT22;1661;53.572;10.174;2023-02-20T07:52:44;7.70;89.90
3298;DHT22;1661;53.572;10.174;2023-02-20T07:55:12;7.80;89.70
3298;DHT22;1661;53.572;10.174;2023-02-20T07:57:39;7.90;89.80
3298;DHT22;1661;53.572;10.174;2023-02-20T08:00:07;8.00;89.70
3298;DHT22;1661;53.572;10.174;2023-02-20T08:02:35;7.90;89.70
3298;DHT22;1661;53.572;10.174;2023-02-20T08:05:02;8.00;89.60
3298;DHT22;1661;53.572;10.174;2023-02-20T08:07:29;7.90;90.00
3298;DHT22;1661;53.572;10.174;2023-02-20T08:09:57;8.00;90.10
3298;DHT22;1661;53.572;10.174;2023-02-20T08:12:24;8.00;89.80
3298;DHT22;1661;53.572;10.174;2023-02-20T08:14:51;8.00;90.00
3298;DHT22;1661;53.572;10.174;2023-02-20T08:17:18;8.10;89.80
3298;DHT22;1661;53.572;10.174;2023-02-20T08:19:45;8.10;89.80
3298;DHT22;1661;53.572;10.174;2023-02-20T08:25:35;8.10;90.40
3298;DHT22;1661;53.572;10.174;2023-02-20T08:28:02;8.10;90.30
3298;DHT22;1661;53.572;10.174;2023-02-20T08:30:29;8.10;90.20
3298;DHT22;1661;53.572;10.174;2023-02-20T08:32:56;8.10;90.20
3298;DHT22;1661;53.572;10.174;2023-02-20T08:35:23;8.10;90.30
3298;DHT22;1661;53.572;10.174;2023-02-20T08:37:50;8.10;90.50
3298;DHT22;1661;53.572;10.174;2023-02-20T08:40:17;8.10;90.40
3298;DHT22;1661;53.572;10.174;2023-02-20T08:42:48;8.10;90.80
3298;DHT22;1661;53.572;10.174;2023-02-20T08:45:15;8.20;90.80
3298;DHT22;1661;53.572;10.174;2023-02-20T08:47:48;8.20;90.40
3298;DHT22;1661;53.572;10.174;2023-02-20T08:50:15;8.20;90.30
3298;DHT22;1661;53.572;10.174;2023-02-20T08:52:42;8.20;90.80
3298;DHT22;1661;53.572;10.174;2023-02-20T08:55:09;8.10;91.20
3298;DHT22;1661;53.572;10.174;2023-02-20T08:57:42;8.10;91.40
3298;DHT22;1661;53.572;10.174;2023-02-20T09:00:13;8.20;91.30
3298;DHT22;1661;53.572;10.174;2023-02-20T09:02:40;8.20;91.40
3298;DHT22;1661;53.572;10.174;2023-02-20T09:05:07;8.20;91.30
3298;DHT22;1661;53.572;10.174;2023-02-20T09:07:34;8.30;91.70
3298;DHT22;1661;53.572;10.174;2023-02-20T09:10:01;8.20;92.40
3298;DHT22;1661;53.572;10.174;2023-02-20T09:12:31;8.20;92.60
3298;DHT22;1661;53.572;10.174;2023-02-20T09:14:58;8.20;92.80
3298;DHT22;1661;53.572;10.174;2023-02-20T09:17:26;8.30;93.30
3298;DHT22;1661;53.572;10.174;2023-02-20T09:19:53;8.30;93.60
3298;DHT22;1661;53.572;10.174;2023-02-20T09:22:21;8.30;93.60
3298;DHT22;1661;53.572;10.174;2023-02-20T09:24:48;8.30;94.00
3298;DHT22;1661;53.572;10.174;2023-02-20T09:27:15;8.30;94.30
3298;DHT22;1661;53.572;10.174;2023-02-20T09:29:47;8.40;94.30
3298;DHT22;1661;53.572;10.174;2023-02-20T09:32:13;8.40;94.40
3298;DHT22;1661;53.572;10.174;2023-02-20T09:34:41;8.40;94.70
3298;DHT22;1661;53.572;10.174;2023-02-20T09:37:09;8.40;95.20
3298;DHT22;1661;53.572;10.174;2023-02-20T09:39:36;8.40;95.40
3298;DHT22;1661;53.572;10.174;2023-02-20T09:42:10;8.30;96.00
3298;DHT22;1661;53.572;10.174;2023-02-20T09:44:48;8.30;96.10
3298;DHT22;1661;53.572;10.174;2023-02-20T09:47:26;8.30;96.60
3298;DHT22;1661;53.572;10.174;2023-02-20T09:50:00;8.30;96.70
3298;DHT22;1661;53.572;10.174;2023-02-20T09:52:28;8.40;96.70
3298;DHT22;1661;53.572;10.174;2023-02-20T09:55:02;8.40;96.40
3298;DHT22;1661;53.572;10.174;2023-02-20T09:57:31;8.50;96.40
3298;DHT22;1661;53.572;10.174;2023-02-20T10:00:03;8.40;96.50
3298;DHT22;1661;53.572;10.174;2023-02-20T10:02:34;8.40;96.50
3298;DHT22;1661;53.572;10.174;2023-02-20T10:05:06;8.40;96.60
3298;DHT22;1661;53.572;10.174;2023-02-20T10:07:39;8.50;96.40
3298;DHT22;1661;53.572;10.174;2023-02-20T10:10:18;8.50;96.30
3298;DHT22;1661;53.572;10.174;2023-02-20T10:12:53;8.40;96.50
3298;DHT22;1661;53.572;10.174;2023-02-20T10:15:25;8.50;96.80
3298;DHT22;1661;53.572;10.174;2023-02-20T10:18:03;8.50;96.50
3298;DHT22;1661;53.572;10.174;2023-02-20T10:20:46;8.50;96.60
3298;DHT22;1661;53.572;10.174;2023-02-20T10:23:23;8.60;96.30
3298;DHT22;1661;53.572;10.174;2023-02-20T10:25:56;8.60;96.40
3298;DHT22;1661;53.572;10.174;2023-02-20T10:28:25;8.50;96.40
3298;DHT22;1661;53.572;10.174;2023-02-20T10:30:57;8.60;96.30
3298;DHT22;1661;53.572;10.174;2023-02-20T10:33:29;8.60;96.40
3298;DHT22;1661;53.572;10.174;2023-02-20T10:36:03;8.60;96.50
3298;DHT22;1661;53.572;10.174;2023-02-20T10:38:37;8.70;96.60
3298;DHT22;1661;53.572;10.174;2023-02-20T10:41:14;8.70;96.90
3298;DHT22;1661;53.572;10.174;2023-02-20T10:43:47;8.80;96.40
3298;DHT22;1661;53.572;10.174;2023-02-20T10:46:19;8.80;95.90
3298;DHT22;1661;53.572;10.174;2023-02-20T10:48:49;8.80;95.70
3298;DHT22;1661;53.572;10.174;2023-02-20T10:51:23;8.80;95.40
3298;DHT22;1661;53.572;10.174;2023-02-20T10:53:56;8.90;95.70
3298;DHT22;1661;53.572;10.174;2023-02-20T10:56:26;9.00;95.80
3298;DHT22;1661;53.572;10.174;2023-02-20T10:59:03;9.00;95.30
3298;DHT22;1661;53.572;10.174;2023-02-20T11:01:34;9.10;94.80
3298;DHT22;1661;53.572;10.174;2023-02-20T11:04:03;9.10;94.60
3298;DHT22;1661;53.572;10.174;2023-02-20T11:06:38;9.10;94.20
3298;DHT22;1661;53.572;10.174;2023-02-20T11:09:08;9.10;94.10
3298;DHT22;1661;53.572;10.174;2023-02-20T11:11:37;9.10;94.40
3298;DHT22;1661;53.572;10.174;2023-02-20T11:14:11;9.10;94.40
3298;DHT22;1661;53.572;10.174;2023-02-20T11:16:45;9.20;94.10
3298;DHT22;1661;53.572;10.174;2023-02-20T11:19:17;9.20;93.90
3298;DHT22;1661;53.572;10.174;2023-02-20T11:21:48;9.30;93.70
3298;DHT22;1661;53.572;10.174;2023-02-20T11:24:39;9.30;93.20
3298;DHT22;1661;53.572;10.174;2023-02-20T11:27:12;9.30;93.30
3298;DHT22;1661;53.572;10.174;2023-02-20T11:29:42;9.30;93.20
3298;DHT22;1661;53.572;10.174;2023-02-20T11:32:32;9.30;92.70
3298;DHT22;1661;53.572;10.174;2023-02-20T11:35:22;9.40;92.60
3298;DHT22;1661;53.572;10.174;2023-02-20T11:38:25;9.40;92.40
3298;DHT22;1661;53.572;10.174;2023-02-20T11:47:09;9.40;91.70
3298;DHT22;1661;53.572;10.174;2023-02-20T11:49:38;9.50;91.90
3298;DHT22;1661;53.572;10.174;2023-02-20T11:52:07;9.50;91.80
3298;DHT22;1661;53.572;10.174;2023-02-20T11:54:35;9.60;91.50
3298;DHT22;1661;53.572;10.174;2023-02-20T11:57:04;9.70;91.20
3298;DHT22;1661;53.572;10.174;2023-02-20T11:59:36;9.70;90.80
3298;DHT22;1661;53.572;10.174;2023-02-20T12:05:04;9.90;90.30
3298;DHT22;1661;53.572;10.174;2023-02-20T12:07:35;9.90;90.00
3298;DHT22;1661;53.572;10.174;2023-02-20T12:10:13;9.90;89.50
3298;DHT22;1661;53.572;10.174;2023-02-20T12:12:41;9.90;89.60
3298;DHT22;1661;53.572;10.174;2023-02-20T12:15:12;9.90;89.50
3298;DHT22;1661;53.572;10.174;2023-02-20T12:17:48;9.90;89.60
3298;DHT22;1661;53.572;10.174;2023-02-20T12:20:22;10.00;89.30
3298;DHT22;1661;53.572;10.174;2023-02-20T12:22:58;10.00;88.60
3298;DHT22;1661;53.572;10.174;2023-02-20T12:25:36;9.90;89.00
3298;DHT22;1661;53.572;10.174;2023-02-20T12:28:12;9.90;89.00
3298;DHT22;1661;53.572;10.174;2023-02-20T12:30:50;9.90;88.90
3298;DHT22;1661;53.572;10.174;2023-02-20T12:33:41;10.00;88.50
3298;DHT22;1661;53.572;10.174;2023-02-20T12:36:22;10.10;88.50
3298;DHT22;1661;53.572;10.174;2023-02-20T12:38:56;10.10;88.20
3298;DHT22;1661;53.572;10.174;2023-02-20T12:41:40;10.10;88.00
3298;DHT22;1661;53.572;10.174;2023-02-20T12:44:22;10.20;87.40
3298;DHT22;1661;53.572;10.174;2023-02-20T12:46:57;10.10;87.60
3298;DHT22;1661;53.572;10.174;2023-02-20T12:52:39;10.10;87.60
3298;DHT22;1661;53.572;10.174;2023-02-20T12:55:21;10.10;87.40
3298;DHT22;1661;53.572;10.174;2023-02-20T12:58:02;10.10;87.50
3298;DHT22;1661;53.572;10.174;2023-02-20T13:00:35;10.10;87.20
3298;DHT22;1661;53.572;10.174;2023-02-20T13:03:08;10.20;87.20
3298;DHT22;1661;53.572;10.174;2023-02-20T13:05:38;10.20;87.30
3298;DHT22;1661;53.572;10.174;2023-02-20T13:08:11;10.20;86.90
3298;DHT22;1661;53.572;10.174;2023-02-20T13:10:51;10.30;86.90
3298;DHT22;1661;53.572;10.174;2023-02-20T13:13:21;10.30;86.90
3298;DHT22;1661;53.572;10.174;2023-02-20T13:15:54;10.30;86.90
3298;DHT22;1661;53.572;10.174;2023-02-20T13:18:26;10.30;87.00
3298;DHT22;1661;53.572;10.174;2023-02-20T13:20:59;10.20;87.10
3298;DHT22;1661;53.572;10.174;2023-02-20T13:23:31;10.20;87.30
3298;DHT22;1661;53.572;10.174;2023-02-20T13:25:59;10.30;87.20
3298;DHT22;1661;53.572;10.174;2023-02-20T13:28:33;10.30;87.00
3298;DHT22;1661;53.572;10.174;2023-02-20T13:31:10;10.40;86.90
3298;DHT22;1661;53.572;10.174;2023-02-20T13:33:38;10.30;86.90
3298;DHT22;1661;53.572;10.174;2023-02-20T13:39:25;10.30;87.10
3298;DHT22;1661;53.572;10.174;2023-02-20T13:41:57;10.40;86.90
3298;DHT22;1661;53.572;10.174;2023-02-20T13:44:39;10.40;86.80
3298;DHT22;1661;53.572;10.174;2023-02-20T13:47:32;10.40;86.90
3298;DHT22;1661;53.572;10.174;2023-02-20T13:50:29;10.40;86.70
3298;DHT22;1661;53.572;10.174;2023-02-20T13:53:04;10.50;86.90
3298;DHT22;1661;53.572;10.174;2023-02-20T13:55:31;10.40;86.90
3298;DHT22;1661;53.572;10.174;2023-02-20T13:58:08;10.40;86.90
3298;DHT22;1661;53.572;10.174;2023-02-20T14:00:47;10.50;87.10
3298;DHT22;1661;53.572;10.174;2023-02-20T14:03:22;10.40;87.40
3298;DHT22;1661;53.572;10.174;2023-02-20T14:06:06;10.30;87.60
3298;DHT22;1661;53.572;10.174;2023-02-20T14:08:34;10.40;87.60
3298;DHT22;1661;53.572;10.174;2023-02-20T14:11:05;10.30;87.50
3298;DHT22;1661;53.572;10.174;2023-02-20T14:13:33;10.30;87.60
3298;DHT22;1661;53.572;10.174;2023-02-20T14:16:02;10.30;87.70
3298;DHT22;1661;53.572;10.174;2023-02-20T14:18:31;10.40;87.70
3298;DHT22;1661;53.572;10.174;2023-02-20T14:21:08;10.30;88.00
3298;DHT22;1661;53.572;10.174;2023-02-20T14:23:35;10.30;87.80
3298;DHT22;1661;53.572;10.174;2023-02-20T14:26:04;10.40;87.70
3298;DHT22;1661;53.572;10.174;2023-02-20T14:28:33;10.30;87.90
3298;DHT22;1661;53.572;10.174;2023-02-20T14:31:17;10.40;88.30
3298;DHT22;1661;53.572;10.174;2023-02-20T14:33:48;10.50;87.90
3298;DHT22;1661;53.572;10.174;2023-02-20T14:36:38;10.40;87.90
3298;DHT22;1661;53.572;10.174;2023-02-20T14:39:25;10.30;88.10
3298;DHT22;1661;53.572;10.174;2023-02-20T14:41:57;10.40;88.20
3298;DHT22;1661;53.572;10.174;2023-02-20T14:44:26;10.40;88.00
3298;DHT22;1661;53.572;10.174;2023-02-20T14:47:03;10.40;88.90
3298;DHT22;1661;53.572;10.174;2023-02-20T14:49:32;10.40;89.30
3298;DHT22;1661;53.572;10.174;2023-02-20T14:52:06;10.40;89.50
3298;DHT22;1661;53.572;10.174;2023-02-20T14:54:38;10.30;89.60
3298;DHT22;1661;53.572;10.174;2023-02-20T14:57:12;10.30;90.20
3298;DHT22;1661;53.572;10.174;2023-02-20T14:59:41;10.30;90.40
3298;DHT22;1661;53.572;10.174;2023-02-20T15:02:16;10.30;90.70
3298;DHT22;1661;53.572;10.174;2023-02-20T15:04:48;10.20;90.90
3298;DHT22;1661;53.572;10.174;2023-02-20T15:07:15;10.20;91.10
3298;DHT22;1661;53.572;10.174;2023-02-20T15:09:44;10.20;90.80
3298;DHT22;1661;53.572;10.174;2023-02-20T15:12:22;10.20;90.70
3298;DHT22;1661;53.572;10.174;2023-02-20T15:14:59;10.20;90.40
3298;DHT22;1661;53.572;10.174;2023-02-20T15:17:31;10.20;91.10
3298;DHT22;1661;53.572;10.174;2023-02-20T15:19:58;10.20;91.70
3298;DHT22;1661;53.572;10.174;2023-02-20T15:22:34;10.20;91.70
3298;DHT22;1661;53.572;10.174;2023-02-20T15:25:14;10.20;91.60
3298;DHT22;1661;53.572;10.174;2023-02-20T15:28:02;10.20;91.70
3298;DHT22;1661;53.572;10.174;2023-02-20T15:30:32;10.20;92.10
3298;DHT22;1661;53.572;10.174;2023-02-20T15:33:07;10.10;93.00
3298;DHT22;1661;53.572;10.174;2023-02-20T15:35:37;10.10;93.80
3298;DHT22;1661;53.572;10.174;2023-02-20T15:38:05;10.00;94.00
3298;DHT22;1661;53.572;10.174;2023-02-20T15:40:33;10.10;94.30
3298;DHT22;1661;53.572;10.174;2023-02-20T15:43:09;10.10;93.90
3298;DHT22;1661;53.572;10.174;2023-02-20T15:45:37;10.10;94.50
3298;DHT22;1661;53.572;10.174;2023-02-20T15:48:06;10.10;94.60
3298;DHT22;1661;53.572;10.174;2023-02-20T15:50:35;10.00;95.20
3298;DHT22;1661;53.572;10.174;2023-02-20T15:53:02;10.00;95.10
3298;DHT22;1661;53.572;10.174;2023-02-20T15:55:32;10.00;95.50
3298;DHT22;1661;53.572;10.174;2023-02-20T15:57:59;10.00;95.60
3298;DHT22;1661;53.572;10.174;2023-02-20T16:00:28;10.00;95.50
3298;DHT22;1661;53.572;10.174;2023-02-20T16:02:58;10.00;95.80
3298;DHT22;1661;53.572;10.174;2023-02-20T16:05:27;9.90;96.40
3298;DHT22;1661;53.572;10.174;2023-02-20T16:07:54;9.90;96.80
3298;DHT22;1661;53.572;10.174;2023-02-20T16:10:21;9.90;96.70
3298;DHT22;1661;53.572;10.174;2023-02-20T16:12:59;9.90;96.90
3298;DHT22;1661;53.572;10.174;2023-02-20T16:15:27;9.80;96.80
3298;DHT22;1661;53.572;10.174;2023-02-20T16:17:54;9.80;97.10
3298;DHT22;1661;53.572;10.174;2023-02-20T16:20:22;9.80;97.30
3298;DHT22;1661;53.572;10.174;2023-02-20T16:22:51;9.80;97.60
3298;DHT22;1661;53.572;10.174;2023-02-20T16:25:19;9.80;97.50
3298;DHT22;1661;53.572;10.174;2023-02-20T16:27:51;9.80;97.80
3298;DHT22;1661;53.572;10.174;2023-02-20T16:30:24;9.80;97.80
3298;DHT22;1661;53.572;10.174;2023-02-20T16:32:52;9.70;97.80
3298;DHT22;1661;53.572;10.174;2023-02-20T16:35:25;9.70;98.00
3298;DHT22;1661;53.572;10.174;2023-02-20T16:38:01;9.70;98.60
3298;DHT22;1661;53.572;10.174;2023-02-20T16:40:27;9.70;98.30
3298;DHT22;1661;53.572;10.174;2023-02-20T16:42:54;9.70;98.10
3298;DHT22;1661;53.572;10.174;2023-02-20T16:45:21;9.70;98.40
3298;DHT22;1661;53.572;10.174;2023-02-20T16:47:52;9.70;98.40